Time;durP1;ratioP1;P1;durP2;ratioP2;P2;SDS_P1;SDS_P2;PMS_P1;PMS_P2;Temp;Humidity;BMP_temperature;BMP_pressure;BME280_temperature;BME280_humidity;BME280_pressure;Samples;Min_cycle;Max_cycle;Signal;HPM_P1;HPM_P2
2021/06/26 00:01:44;;;;;;;;;;;;;;;16.04;100.00;101123.25;4992101;28;20356;-73
2021/06/26 00:04:12;;;;;;;;;;;;;;;15.98;100.00;101132.94;4992635;28;20024;-73
2021/06/26 00:06:38;;;;;;;;;;;;;;;15.95;100.00;101137.84;4992457;28;19937;-73
2021/06/26 00:09:05;;;;;;;;;;;;;;;15.86;100.00;101137.72;4992529;28;20057;-73
2021/06/26 00:11:31;;;;;;;;;;;;;;;15.84;100.00;101136.16;4992418;28;19926;-73
2021/06/26 00:13:58;;;;;;;;;;;;;;;15.82;100.00;101132.69;4992420;28;20357;-73
2021/06/26 00:16:26;;;;;;;;;;;;;;;15.85;100.00;101132.41;4992388;28;19930;-73
2021/06/26 00:18:52;;;;;;;;;;;;;;;15.86;100.00;101128.63;4992389;28;20197;-73
2021/06/26 00:21:18;;;;;;;;;;;;;;;15.89;100.00;101129.22;4991940;28;19980;-73
2021/06/26 00:23:45;;;;;;;;;;;;;;;15.95;100.00;101129.63;4992195;28;19932;-72
2021/06/26 00:26:11;;;;;;;;;;;;;;;15.98;100.00;101132.06;4992136;28;20353;-73
2021/06/26 00:28:37;;;;;;;;;;;;;;;15.99;100.00;101137.38;4990868;28;19976;-73
2021/06/26 00:31:04;;;;;;;;;;;;;;;16.00;100.00;101139.09;4986820;28;19926;-73
2021/06/26 00:33:31;;;;;;;;;;;;;;;15.99;100.00;101137.38;4989544;28;19957;-73
2021/06/26 00:35:58;;;;;;;;;;;;;;;15.97;100.00;101125.72;4992279;28;19926;-73
2021/06/26 00:38:24;;;;;;;;;;;;;;;15.90;100.00;101132.84;4991718;28;19926;-73
2021/06/26 00:40:50;;;;;;;;;;;;;;;15.83;100.00;101140.78;4992064;28;20281;-73
2021/06/26 00:43:18;;;;;;;;;;;;;;;15.73;100.00;101145.38;5007068;28;20022;-73
2021/06/26 00:45:44;;;;;;;;;;;;;;;15.62;100.00;101145.53;4991896;28;19926;-72
2021/06/26 00:48:10;;;;;;;;;;;;;;;15.53;100.00;101144.56;5007015;28;20454;-73
2021/06/26 00:50:38;;;;;;;;;;;;;;;15.45;100.00;101150.75;5006257;28;19926;-73
2021/06/26 00:53:04;;;;;;;;;;;;;;;15.38;100.00;101141.41;4990464;28;19926;-73
2021/06/26 00:55:31;;;;;;;;;;;;;;;15.33;100.00;101154.66;4991483;28;19930;-73
2021/06/26 00:57:58;;;;;;;;;;;;;;;15.26;100.00;101156.25;4991772;28;19993;-73
2021/06/26 01:00:25;;;;;;;;;;;;;;;15.17;100.00;101152.53;4991932;28;20312;-73
2021/06/26 01:02:51;;;;;;;;;;;;;;;15.05;100.00;101141.72;4991749;28;19965;-73
2021/06/26 01:05:18;;;;;;;;;;;;;;;14.98;100.00;101136.97;4991708;28;19937;-73
2021/06/26 01:07:46;;;;;;;;;;;;;;;14.87;100.00;101141.56;4991827;28;19988;-73
2021/06/26 01:10:13;;;;;;;;;;;;;;;14.81;100.00;101144.00;4991642;28;19988;-73
2021/06/26 01:12:39;;;;;;;;;;;;;;;14.73;100.00;101152.91;4991413;28;19930;-73
2021/06/26 01:15:07;;;;;;;;;;;;;;;14.62;100.00;101147.53;4991695;28;20349;-73
2021/06/26 01:17:33;;;;;;;;;;;;;;;14.51;100.00;101143.94;4991795;28;19972;-72
2021/06/26 01:20:00;;;;;;;;;;;;;;;14.42;100.00;101163.88;4991625;28;19961;-73
2021/06/26 01:22:29;;;;;;;;;;;;;;;14.33;100.00;101162.00;4991511;28;20444;-73
2021/06/26 01:27:51;;;;;;;;;;;;;;;14.14;100.00;101151.88;5077473;22;20285;-73
2021/06/26 01:30:22;;;;;;;;;;;;;;;14.05;100.00;101154.41;5087075;28;19982;-73
2021/06/26 01:32:48;;;;;;;;;;;;;;;13.99;100.00;101160.44;5090206;28;20338;-72
2021/06/26 01:35:14;;;;;;;;;;;;;;;13.93;100.00;101157.38;5090208;28;19959;-72
2021/06/26 01:37:42;;;;;;;;;;;;;;;13.88;100.00;101163.22;5072579;28;20382;-73
2021/06/26 01:40:09;;;;;;;;;;;;;;;13.78;100.00;101168.63;5072485;28;20029;-73
2021/06/26 01:42:36;;;;;;;;;;;;;;;13.73;100.00;101177.25;5090980;28;19925;-73
2021/06/26 01:45:02;;;;;;;;;;;;;;;13.70;100.00;101172.03;5090618;28;20383;-73
2021/06/26 01:47:29;;;;;;;;;;;;;;;13.65;100.00;101170.72;5073897;28;20018;-73
2021/06/26 01:49:55;;;;;;;;;;;;;;;13.62;100.00;101176.44;5052736;28;20355;-74
2021/06/26 01:52:21;;;;;;;;;;;;;;;13.55;100.00;101166.06;5070281;28;19972;-73
2021/06/26 01:54:49;;;;;;;;;;;;;;;13.52;100.00;101162.72;5052823;28;19974;-73
2021/06/26 01:57:15;;;;;;;;;;;;;;;13.48;100.00;101167.59;5072763;28;19930;-73
2021/06/26 01:59:42;;;;;;;;;;;;;;;13.44;100.00;101171.59;5070503;28;19963;-73
2021/06/26 02:02:08;;;;;;;;;;;;;;;13.41;100.00;101165.53;5072458;28;20422;-72
2021/06/26 02:04:35;;;;;;;;;;;;;;;13.37;100.00;101174.00;5074140;28;19964;-72
2021/06/26 02:07:01;;;;;;;;;;;;;;;13.35;100.00;101177.81;5074034;28;19924;-72
2021/06/26 02:09:27;;;;;;;;;;;;;;;13.31;100.00;101179.03;5073834;28;20387;-73
2021/06/26 02:11:55;;;;;;;;;;;;;;;13.29;100.00;101175.59;5073929;28;19924;-73
2021/06/26 02:14:21;;;;;;;;;;;;;;;13.27;100.00;101180.31;5073800;28;19936;-72
2021/06/26 02:16:47;;;;;;;;;;;;;;;13.22;100.00;101170.66;5073969;28;19925;-73
2021/06/26 02:19:14;;;;;;;;;;;;;;;13.26;100.00;101184.06;5073851;28;19924;-72
2021/06/26 02:21:40;;;;;;;;;;;;;;;13.18;100.00;101182.81;5073890;28;20370;-72
2021/06/26 02:24:07;;;;;;;;;;;;;;;13.13;100.00;101185.06;5073617;28;20026;-73
2021/06/26 02:26:33;;;;;;;;;;;;;;;13.09;100.00;101186.31;5093943;28;20014;-73
2021/06/26 02:29:01;;;;;;;;;;;;;;;13.04;100.00;101188.56;5093628;28;19930;-73
2021/06/26 02:31:27;;;;;;;;;;;;;;;13.01;100.00;101178.78;5093954;28;20014;-73
2021/06/26 02:33:53;;;;;;;;;;;;;;;12.94;100.00;101183.03;5093878;28;20369;-73
2021/06/26 02:36:20;;;;;;;;;;;;;;;12.95;100.00;101189.34;5094203;28;19977;-73
2021/06/26 02:38:46;;;;;;;;;;;;;;;12.93;100.00;101196.81;5093436;28;19971;-73
2021/06/26 02:41:12;;;;;;;;;;;;;;;12.96;100.00;101194.69;5093798;28;20358;-73
2021/06/26 02:43:38;;;;;;;;;;;;;;;12.99;100.00;101197.16;5093613;28;20326;-73
2021/06/26 02:46:06;;;;;;;;;;;;;;;13.07;100.00;101199.22;5093835;28;19924;-73
2021/06/26 02:48:32;;;;;;;;;;;;;;;13.01;100.00;101203.31;5093254;28;20032;-73
2021/06/26 02:50:59;;;;;;;;;;;;;;;12.97;100.00;101204.56;5093557;28;19977;-73
2021/06/26 02:53:25;;;;;;;;;;;;;;;12.98;100.00;101206.31;5093750;28;19963;-72
2021/06/26 02:55:55;;;;;;;;;;;;;;;12.93;100.00;101194.06;5093341;28;19981;-73
2021/06/26 02:58:21;;;;;;;;;;;;;;;12.86;100.00;101208.19;5093240;28;19925;-73
2021/06/26 03:00:48;;;;;;;;;;;;;;;12.79;100.00;101200.69;5093903;28;20306;-71
2021/06/26 03:03:15;;;;;;;;;;;;;;;12.76;100.00;101199.09;5093387;28;19928;-72
2021/06/26 03:05:42;;;;;;;;;;;;;;;12.75;100.00;101202.78;5093242;28;19924;-73
2021/06/26 03:08:09;;;;;;;;;;;;;;;12.73;100.00;101199.31;5092669;28;20023;-74
2021/06/26 03:10:35;;;;;;;;;;;;;;;12.73;100.00;101202.03;5092202;28;19924;-72
2021/06/26 03:13:02;;;;;;;;;;;;;;;12.71;100.00;101202.19;5088823;28;20354;-73
2021/06/26 03:15:28;;;;;;;;;;;;;;;12.67;100.00;101211.59;5087210;28;20027;-74
2021/06/26 03:17:54;;;;;;;;;;;;;;;12.65;100.00;101207.25;5084110;28;19924;-73
2021/06/26 03:20:22;;;;;;;;;;;;;;;12.63;100.00;101217.44;5073581;28;19964;-71
2021/06/26 03:22:48;;;;;;;;;;;;;;;12.62;100.00;101215.69;5073014;28;20047;-72
2021/06/26 03:25:14;;;;;;;;;;;;;;;12.61;100.00;101216.69;5072641;28;19959;-72
2021/06/26 03:27:41;;;;;;;;;;;;;;;12.70;100.00;101214.06;5072680;28;20310;-73
2021/06/26 03:30:08;;;;;;;;;;;;;;;12.78;100.00;101223.47;5072571;28;20356;-72
2021/06/26 03:32:34;;;;;;;;;;;;;;;12.85;100.00;101230.13;5072761;28;19924;-73
2021/06/26 03:35:00;;;;;;;;;;;;;;;12.84;100.00;101226.56;5072700;28;19960;-72
2021/06/26 03:37:28;;;;;;;;;;;;;;;12.87;100.00;101223.56;5072284;28;20383;-72
2021/06/26 03:39:54;;;;;;;;;;;;;;;12.90;100.00;101215.13;5072459;28;20288;-73
2021/06/26 03:42:21;;;;;;;;;;;;;;;12.94;100.00;101229.38;5072621;28;19975;-74
2021/06/26 03:44:47;;;;;;;;;;;;;;;13.00;100.00;101230.69;5072317;28;20363;-73
2021/06/26 03:47:13;;;;;;;;;;;;;;;13.07;100.00;101226.50;5072272;28;20192;-73
2021/06/26 03:49:40;;;;;;;;;;;;;;;13.14;100.00;101226.84;5072207;28;19925;-73
2021/06/26 03:52:07;;;;;;;;;;;;;;;13.21;100.00;101231.66;5071582;28;19925;-71
2021/06/26 03:54:34;;;;;;;;;;;;;;;13.31;100.00;101222.66;5070453;28;19947;-73
2021/06/26 03:57:01;;;;;;;;;;;;;;;13.43;100.00;101224.41;5070193;28;19964;-74
2021/06/26 03:59:27;;;;;;;;;;;;;;;13.55;100.00;101222.47;5070435;28;19925;-73
2021/06/26 04:01:53;;;;;;;;;;;;;;;13.67;100.00;101223.25;5070180;28;20362;-73
2021/06/26 04:04:20;;;;;;;;;;;;;;;13.79;100.00;101226.78;5070483;28;19928;-74
2021/06/26 04:06:47;;;;;;;;;;;;;;;13.89;100.00;101231.31;5069896;28;20383;-73
2021/06/26 04:09:14;;;;;;;;;;;;;;;14.03;100.00;101231.97;5071502;28;20390;-73
2021/06/26 04:11:42;;;;;;;;;;;;;;;14.19;100.00;101223.28;5054388;28;19924;-73
2021/06/26 04:14:08;;;;;;;;;;;;;;;14.35;100.00;101230.97;5082610;28;19978;-73
2021/06/26 04:16:34;;;;;;;;;;;;;;;14.49;100.00;101222.41;5089089;28;19971;-73
2021/06/26 04:19:00;;;;;;;;;;;;;;;14.67;100.00;101227.25;5091543;28;19931;-71
2021/06/26 04:21:27;;;;;;;;;;;;;;;14.87;100.00;101228.16;5092159;28;20342;-72
2021/06/26 04:23:53;;;;;;;;;;;;;;;15.09;100.00;101235.25;5091984;28;19939;-72
2021/06/26 04:26:19;;;;;;;;;;;;;;;15.33;100.00;101223.03;5091538;28;20363;-72
2021/06/26 04:28:47;;;;;;;;;;;;;;;15.55;100.00;101221.88;5091711;28;19924;-70
2021/06/26 04:31:13;;;;;;;;;;;;;;;15.81;100.00;101224.06;5091578;28;19924;-72
2021/06/26 04:33:40;;;;;;;;;;;;;;;15.96;100.00;101217.09;5091826;28;19967;-72
2021/06/26 04:36:12;;;;;;;;;;;;;;;16.16;100.00;101220.63;5091934;28;20358;-72
2021/06/26 04:38:38;;;;;;;;;;;;;;;16.37;100.00;101214.06;5091244;28;19924;-71
2021/06/26 04:41:04;;;;;;;;;;;;;;;16.60;100.00;101210.94;5091564;28;19964;-72
2021/06/26 04:43:31;;;;;;;;;;;;;;;16.80;100.00;101209.78;5091220;28;20394;-72
2021/06/26 04:45:58;;;;;;;;;;;;;;;17.07;100.00;101203.44;5073782;28;19951;-72
2021/06/26 04:48:27;;;;;;;;;;;;;;;17.30;100.00;101211.19;5091336;28;20417;-72
2021/06/26 04:50:54;;;;;;;;;;;;;;;17.46;100.00;101198.66;5091476;28;19971;-72
2021/06/26 04:53:20;;;;;;;;;;;;;;;17.59;100.00;101206.50;5091529;28;19924;-71
2021/06/26 04:55:52;;;;;;;;;;;;;;;17.75;100.00;101209.34;5091281;28;20373;-72
2021/06/26 04:58:18;;;;;;;;;;;;;;;18.02;100.00;101204.75;5091419;28;19930;-72
2021/06/26 05:00:44;;;;;;;;;;;;;;;18.24;100.00;101208.84;5073402;28;19959;-72
2021/06/26 05:03:12;;;;;;;;;;;;;;;18.43;100.00;101206.88;5091540;28;19924;-71
2021/06/26 05:05:40;;;;;;;;;;;;;;;18.63;100.00;101207.47;5091020;28;22579;-72
2021/06/26 05:08:06;;;;;;;;;;;;;;;18.79;100.00;101213.03;5091109;28;19925;-72
2021/06/26 05:10:33;;;;;;;;;;;;;;;18.90;100.00;101215.47;5091700;28;19989;-72
2021/06/26 05:12:59;;;;;;;;;;;;;;;19.03;100.00;101215.00;5091252;28;19924;-72
2021/06/26 05:15:27;;;;;;;;;;;;;;;19.14;100.00;101224.84;5088140;28;20018;-72
2021/06/26 05:17:53;;;;;;;;;;;;;;;19.26;100.00;101230.03;5091169;28;19931;-72
2021/06/26 05:20:21;;;;;;;;;;;;;;;19.28;100.00;101231.59;5091152;28;20027;-72
2021/06/26 05:22:47;;;;;;;;;;;;;;;19.36;100.00;101234.34;5090667;28;19967;-72
2021/06/26 05:25:13;;;;;;;;;;;;;;;19.33;100.00;101231.06;5090901;28;20518;-72
2021/06/26 05:27:40;;;;;;;;;;;;;;;19.39;100.00;101234.00;5091385;28;19962;-72
2021/06/26 05:30:07;;;;;;;;;;;;;;;19.54;100.00;101230.56;5091191;28;19973;-72
2021/06/26 05:32:33;;;;;;;;;;;;;;;19.67;100.00;101230.91;5091170;28;19970;-72
2021/06/26 05:34:59;;;;;;;;;;;;;;;19.61;100.00;101226.06;5073347;28;20366;-72
2021/06/26 05:37:27;;;;;;;;;;;;;;;19.63;100.00;101225.91;5092646;28;19962;-72
2021/06/26 05:39:53;;;;;;;;;;;;;;;19.67;100.00;101221.75;5094543;28;19963;-72
2021/06/26 05:42:19;;;;;;;;;;;;;;;19.52;100.00;101228.00;5094898;28;19959;-72
2021/06/26 05:44:46;;;;;;;;;;;;;;;19.54;100.00;101228.66;5094892;28;20339;-72
2021/06/26 05:47:12;;;;;;;;;;;;;;;19.73;100.00;101232.09;5094667;28;20069;-72
2021/06/26 05:49:38;;;;;;;;;;;;;;;19.72;100.00;101227.63;5094231;28;19928;-72
2021/06/26 05:52:05;;;;;;;;;;;;;;;19.79;100.00;101230.53;5094970;28;20364;-72
2021/06/26 05:54:32;;;;;;;;;;;;;;;19.92;100.00;101224.56;5094647;28;19970;-72
2021/06/26 05:56:59;;;;;;;;;;;;;;;20.05;100.00;101222.97;5075984;28;20383;-72
2021/06/26 05:59:25;;;;;;;;;;;;;;;20.08;100.00;101227.25;5094797;28;20030;-72
2021/06/26 06:01:52;;;;;;;;;;;;;;;20.08;100.00;101230.03;5076125;28;19963;-72
2021/06/26 06:04:18;;;;;;;;;;;;;;;20.10;100.00;101225.22;5076658;28;19924;-72
2021/06/26 06:06:44;;;;;;;;;;;;;;;20.33;100.00;101224.47;5076014;28;20355;-72
2021/06/26 06:09:10;;;;;;;;;;;;;;;20.42;100.00;101228.91;5094221;28;20428;-72
2021/06/26 06:11:38;;;;;;;;;;;;;;;20.67;100.00;101231.56;5094315;28;20018;-72
2021/06/26 06:14:05;;;;;;;;;;;;;;;20.72;100.00;101219.00;5094062;28;20305;-71
2021/06/26 06:16:31;;;;;;;;;;;;;;;20.85;100.00;101221.16;5093029;28;20379;-72
2021/06/26 06:18:57;;;;;;;;;;;;;;;21.05;100.00;101216.03;5094557;28;19924;-71
2021/06/26 06:21:24;;;;;;;;;;;;;;;21.10;100.00;101220.16;5093601;28;19959;-71
2021/06/26 06:23:50;;;;;;;;;;;;;;;21.14;100.00;101216.00;5094274;28;20026;-71
2021/06/26 06:26:16;;;;;;;;;;;;;;;21.27;100.00;101219.00;5093657;28;19928;-71
2021/06/26 06:28:44;;;;;;;;;;;;;;;21.16;100.00;101212.00;5093783;28;20472;-71
2021/06/26 06:31:10;;;;;;;;;;;;;;;21.39;100.00;101222.19;5093820;28;19977;-71
2021/06/26 06:33:36;;;;;;;;;;;;;;;21.38;100.00;101226.88;5093731;28;19924;-71
2021/06/26 06:36:07;;;;;;;;;;;;;;;21.82;100.00;101230.88;5093581;28;19928;-71
2021/06/26 06:38:33;;;;;;;;;;;;;;;22.10;100.00;101227.50;5093494;28;19954;-71
2021/06/26 06:40:59;;;;;;;;;;;;;;;22.35;100.00;101227.25;5093461;28;20010;-71
2021/06/26 06:43:25;;;;;;;;;;;;;;;22.60;100.00;101232.50;5093933;28;19924;-70
2021/06/26 06:45:54;;;;;;;;;;;;;;;22.96;100.00;101223.38;5093354;28;19924;-70
2021/06/26 06:48:20;;;;;;;;;;;;;;;22.96;100.00;101224.22;5074216;28;20276;-70
2021/06/26 06:50:47;;;;;;;;;;;;;;;23.07;100.00;101223.69;5093553;28;19967;-70
2021/06/26 06:53:13;;;;;;;;;;;;;;;23.40;100.00;101222.38;5093692;28;19928;-71
2021/06/26 06:55:39;;;;;;;;;;;;;;;23.51;100.00;101221.00;5085018;28;20038;-70
2021/06/26 06:58:06;;;;;;;;;;;;;;;23.49;100.00;101228.63;5093223;28;20288;-70
2021/06/26 07:00:32;;;;;;;;;;;;;;;23.47;100.00;101231.59;5093251;28;19932;-69
2021/06/26 07:03:00;;;;;;;;;;;;;;;23.45;100.00;101233.72;5075234;28;19927;-70
2021/06/26 07:05:26;;;;;;;;;;;;;;;24.07;100.00;101229.38;5093148;28;19977;-71
2021/06/26 07:07:52;;;;;;;;;;;;;;;24.68;100.00;101227.00;5093083;28;20387;-71
2021/06/26 07:10:18;;;;;;;;;;;;;;;25.13;100.00;101227.38;5093001;28;19978;-70
2021/06/26 07:12:45;;;;;;;;;;;;;;;25.59;100.00;101219.38;5093429;28;20034;-70
2021/06/26 07:15:12;;;;;;;;;;;;;;;25.45;100.00;101218.50;5092505;28;19925;-70
2021/06/26 07:17:38;;;;;;;;;;;;;;;24.74;100.00;101223.41;5092739;28;19924;-70
2021/06/26 07:20:06;;;;;;;;;;;;;;;23.95;100.00;101227.38;5087992;28;19981;-70
2021/06/26 07:22:33;;;;;;;;;;;;;;;23.30;100.00;101214.38;5093201;28;19928;-71
2021/06/26 07:24:59;;;;;;;;;;;;;;;22.72;100.00;101222.66;5092642;28;19962;-70
2021/06/26 07:27:25;;;;;;;;;;;;;;;22.48;100.00;101227.44;5091829;28;21737;-71
2021/06/26 07:29:52;;;;;;;;;;;;;;;23.03;100.00;101219.59;5092635;28;19959;-71
2021/06/26 07:32:18;;;;;;;;;;;;;;;23.48;100.00;101213.94;5092557;28;20026;-71
2021/06/26 07:34:44;;;;;;;;;;;;;;;24.31;99.65;101209.72;5092754;28;20023;-71
2021/06/26 07:37:12;;;;;;;;;;;;;;;25.14;94.97;101204.09;5092391;28;19932;-71
2021/06/26 07:39:38;;;;;;;;;;;;;;;26.09;88.10;101203.13;5092149;28;20324;-71
2021/06/26 07:42:05;;;;;;;;;;;;;;;26.39;83.71;101197.09;5092616;28;20031;-71
2021/06/26 07:44:31;;;;;;;;;;;;;;;26.71;80.78;101198.06;5092082;28;19928;-72
2021/06/26 07:46:57;;;;;;;;;;;;;;;26.82;80.02;101192.88;5088016;28;19924;-71
2021/06/26 07:49:24;;;;;;;;;;;;;;;25.95;76.72;101191.16;5084499;28;19986;-70
2021/06/26 07:51:50;;;;;;;;;;;;;;;25.39;84.34;101198.00;5082347;28;19924;-71
2021/06/26 07:54:18;;;;;;;;;;;;;;;25.67;85.20;101197.78;5074889;28;20387;-71
2021/06/26 07:56:44;;;;;;;;;;;;;;;26.57;75.37;101196.38;5071966;28;19929;-71
2021/06/26 07:59:10;;;;;;;;;;;;;;;27.39;65.39;101193.84;5071572;28;20403;-71
2021/06/26 08:01:37;;;;;;;;;;;;;;;27.73;62.58;101180.47;5072002;28;19928;-71
2021/06/26 08:04:03;;;;;;;;;;;;;;;27.97;63.41;101194.66;5071784;28;20031;-71
2021/06/26 08:06:29;;;;;;;;;;;;;;;28.08;70.42;101190.28;5054100;28;19924;-72
2021/06/26 08:08:56;;;;;;;;;;;;;;;28.79;51.71;101185.16;5071675;28;20307;-71
2021/06/26 08:11:24;;;;;;;;;;;;;;;29.21;52.82;101199.22;5054394;28;19928;-72
2021/06/26 08:13:51;;;;;;;;;;;;;;;29.49;53.31;101189.34;5072015;28;20019;-72
2021/06/26 08:16:17;;;;;;;;;;;;;;;28.60;49.97;101197.44;5071735;28;19930;-72
2021/06/26 08:18:44;;;;;;;;;;;;;;;27.87;54.43;101195.19;5053833;28;19967;-72
2021/06/26 08:21:10;;;;;;;;;;;;;;;27.19;54.93;101193.97;5071536;28;19967;-72
2021/06/26 08:23:36;;;;;;;;;;;;;;;26.50;56.42;101193.63;5071854;28;19956;-72
2021/06/26 08:26:03;;;;;;;;;;;;;;;26.07;60.15;101191.38;5071457;28;19978;-72
2021/06/26 08:28:31;;;;;;;;;;;;;;;25.53;62.35;101187.72;5071723;28;19960;-72
2021/06/26 08:30:57;;;;;;;;;;;;;;;25.06;63.30;101190.41;5071570;28;19951;-72
2021/06/26 08:33:23;;;;;;;;;;;;;;;24.68;58.48;101189.00;5071736;28;19932;-72
2021/06/26 08:35:50;;;;;;;;;;;;;;;24.55;57.26;101183.38;5071773;28;20027;-72
2021/06/26 08:38:16;;;;;;;;;;;;;;;25.57;60.75;101177.91;5071238;28;19928;-71
2021/06/26 08:40:43;;;;;;;;;;;;;;;27.01;51.40;101179.94;5071640;28;19960;-72
2021/06/26 08:43:09;;;;;;;;;;;;;;;27.41;48.67;101179.69;5071650;28;19960;-72
2021/06/26 08:45:38;;;;;;;;;;;;;;;26.68;48.42;101189.25;5071203;28;19955;-72
2021/06/26 08:48:04;;;;;;;;;;;;;;;26.05;51.95;101190.72;5071041;28;20296;-72
2021/06/26 08:50:31;;;;;;;;;;;;;;;26.09;54.23;101186.44;5071127;28;20007;-72
2021/06/26 08:52:57;;;;;;;;;;;;;;;27.60;53.42;101188.13;5074102;28;19932;-71
2021/06/26 08:55:23;;;;;;;;;;;;;;;28.50;48.58;101181.22;5091527;28;20444;-71
2021/06/26 08:57:50;;;;;;;;;;;;;;;29.12;46.78;101186.66;5072883;28;19925;-71
2021/06/26 09:00:18;;;;;;;;;;;;;;;29.34;43.18;101188.94;5091032;28;19932;-71
2021/06/26 09:02:45;;;;;;;;;;;;;;;29.64;38.52;101177.69;5089934;28;20382;-71
2021/06/26 09:05:23;;;;;;;;;;;;;;;29.84;40.74;101176.50;5069336;28;19986;-71
2021/06/26 09:07:49;;;;;;;;;;;;;;;29.82;37.42;101175.88;5071589;28;20043;-71
2021/06/26 09:10:16;;;;;;;;;;;;;;;29.92;38.29;101170.56;5090842;28;19971;-72
2021/06/26 09:12:43;;;;;;;;;;;;;;;29.51;36.68;101175.97;5093109;28;20331;-72
2021/06/26 09:15:10;;;;;;;;;;;;;;;29.55;36.12;101170.75;5095171;28;19959;-72
2021/06/26 09:17:37;;;;;;;;;;;;;;;29.60;38.20;101161.63;5094865;28;19977;-72
2021/06/26 09:20:08;;;;;;;;;;;;;;;29.76;36.73;101172.13;5094817;28;20033;-72
2021/06/26 09:22:38;;;;;;;;;;;;;;;30.18;36.87;101172.00;5095384;28;19977;-72
2021/06/26 09:25:05;;;;;;;;;;;;;;;30.66;35.92;101169.13;5073985;28;20391;-72
2021/06/26 09:27:33;;;;;;;;;;;;;;;30.34;35.06;101163.94;5094884;28;19969;-72
2021/06/26 09:29:59;;;;;;;;;;;;;;;30.08;35.70;101154.13;5095422;28;19932;-72
2021/06/26 09:32:26;;;;;;;;;;;;;;;30.11;36.23;101162.88;5095048;28;19978;-72
2021/06/26 09:34:53;;;;;;;;;;;;;;;29.72;37.70;101162.50;5095295;28;20407;-72
2021/06/26 09:37:23;;;;;;;;;;;;;;;29.96;37.72;101169.00;5095058;28;20015;-72
2021/06/26 09:39:51;;;;;;;;;;;;;;;30.57;34.81;101159.44;5095068;28;20275;-72
2021/06/26 09:42:18;;;;;;;;;;;;;;;30.05;33.60;101159.13;5076892;28;20226;-72
2021/06/26 09:44:49;;;;;;;;;;;;;;;30.69;34.38;101160.22;5094968;28;20001;-72
2021/06/26 09:47:24;;;;;;;;;;;;;;;28.67;39.25;101162.78;5094676;28;19948;-72
2021/06/26 09:49:51;;;;;;;;;;;;;;;27.79;42.86;101163.94;5094906;28;20415;-72
2021/06/26 09:52:17;;;;;;;;;;;;;;;26.78;44.75;101163.75;5094835;28;19971;-72
2021/06/26 09:54:45;;;;;;;;;;;;;;;25.52;46.41;101167.44;5094893;28;19924;-72
2021/06/26 09:57:11;;;;;;;;;;;;;;;25.51;47.91;101162.94;5094266;28;19956;-72
2021/06/26 09:59:37;;;;;;;;;;;;;;;25.30;51.67;101157.56;5094848;28;19924;-72
2021/06/26 10:02:04;;;;;;;;;;;;;;;25.12;53.58;101167.38;5094214;28;20023;-71
2021/06/26 10:04:30;;;;;;;;;;;;;;;24.76;45.50;101163.00;5094795;28;20015;-72
2021/06/26 10:06:57;;;;;;;;;;;;;;;24.44;47.23;101167.28;5094420;28;19959;-72
2021/06/26 10:09:23;;;;;;;;;;;;;;;24.20;48.41;101169.53;5094284;28;19924;-72
2021/06/26 10:11:52;;;;;;;;;;;;;;;24.24;50.22;101166.13;5094715;28;20272;-72
2021/06/26 10:14:19;;;;;;;;;;;;;;;24.36;47.94;101168.34;5094236;28;20026;-72
2021/06/26 10:16:45;;;;;;;;;;;;;;;24.21;47.11;101166.56;5094141;28;20027;-72
2021/06/26 10:19:12;;;;;;;;;;;;;;;25.68;45.51;101159.72;5094065;28;19963;-72
2021/06/26 10:21:40;;;;;;;;;;;;;;;26.85;41.22;101157.06;5094295;28;19978;-72
2021/06/26 10:24:10;;;;;;;;;;;;;;;27.85;38.06;101152.72;5094228;28;20022;-72
2021/06/26 10:26:37;;;;;;;;;;;;;;;29.03;38.62;101157.34;5094125;28;19924;-72
2021/06/26 10:29:05;;;;;;;;;;;;;;;29.93;34.96;101154.63;5093964;28;19955;-72
2021/06/26 10:31:34;;;;;;;;;;;;;;;29.88;32.57;101147.81;5093968;28;20010;-72
2021/06/26 10:34:07;;;;;;;;;;;;;;;30.20;35.46;101144.63;5093893;28;19925;-72
2021/06/26 10:36:33;;;;;;;;;;;;;;;29.79;33.60;101146.44;5093966;28;19955;-72
2021/06/26 10:39:00;;;;;;;;;;;;;;;30.23;32.95;101144.13;5093687;28;20157;-72
2021/06/26 10:41:26;;;;;;;;;;;;;;;30.52;31.71;101135.81;5094038;28;19979;-73
2021/06/26 10:43:54;;;;;;;;;;;;;;;30.88;31.08;101130.94;5093733;28;19962;-72
2021/06/26 10:46:21;;;;;;;;;;;;;;;30.53;30.56;101125.44;5075724;28;20359;-72
2021/06/26 10:48:55;;;;;;;;;;;;;;;30.70;31.42;101128.31;5093360;28;19967;-73
2021/06/26 10:51:30;;;;;;;;;;;;;;;30.84;30.79;101134.47;5075501;28;19927;-72
2021/06/26 10:53:56;;;;;;;;;;;;;;;30.75;31.06;101133.16;5075580;28;19970;-73
2021/06/26 10:56:31;;;;;;;;;;;;;;;31.24;30.93;101127.94;5093246;28;19960;-72
2021/06/26 10:59:07;;;;;;;;;;;;;;;30.94;30.73;101125.41;5093319;28;19935;-72
2021/06/26 11:01:35;;;;;;;;;;;;;;;31.48;30.76;101137.06;5093211;28;20026;-72
2021/06/26 11:04:05;;;;;;;;;;;;;;;31.05;27.91;101130.13;5093445;28;20409;-72
2021/06/26 11:06:32;;;;;;;;;;;;;;;31.00;28.83;101127.19;5092583;28;19931;-72
2021/06/26 11:08:59;;;;;;;;;;;;;;;31.36;28.30;101127.88;5093281;28;19985;-72
2021/06/26 11:11:33;;;;;;;;;;;;;;;31.49;28.26;101121.91;5092592;28;19977;-72
2021/06/26 11:14:09;;;;;;;;;;;;;;;31.17;28.10;101125.28;5092809;28;19970;-72
2021/06/26 11:16:38;;;;;;;;;;;;;;;29.87;29.26;101117.28;5092315;28;20359;-71
2021/06/26 11:19:04;;;;;;;;;;;;;;;30.09;29.49;101125.03;5092057;28;20027;-72
2021/06/26 11:21:37;;;;;;;;;;;;;;;30.46;28.34;101131.19;5087080;28;20023;-72
2021/06/26 11:24:03;;;;;;;;;;;;;;;30.52;28.84;101133.03;5088976;28;19955;-73
2021/06/26 11:26:30;;;;;;;;;;;;;;;31.33;29.12;101120.81;5070842;28;19955;-72
2021/06/26 11:28:56;;;;;;;;;;;;;;;31.93;27.47;101121.22;5089263;28;20370;-72
2021/06/26 11:31:22;;;;;;;;;;;;;;;31.93;24.91;101121.22;5090906;28;20010;-72
2021/06/26 11:33:50;;;;;;;;;;;;;;;31.64;26.07;101117.69;5072676;28;20214;-72
2021/06/26 11:36:16;;;;;;;;;;;;;;;31.36;25.82;101123.13;5090948;28;20397;-72
2021/06/26 11:38:43;;;;;;;;;;;;;;;31.86;25.60;101124.22;5090687;28;19977;-72
2021/06/26 11:41:10;;;;;;;;;;;;;;;32.50;23.57;101128.47;5090863;28;20352;-72
2021/06/26 11:43:37;;;;;;;;;;;;;;;32.33;25.26;101128.53;5091299;28;19964;-72
2021/06/26 11:46:04;;;;;;;;;;;;;;;31.89;23.56;101120.88;5091682;28;20365;-72
2021/06/26 11:48:31;;;;;;;;;;;;;;;31.38;23.01;101117.25;5091533;28;19993;-72
2021/06/26 11:51:01;;;;;;;;;;;;;;;31.50;24.70;101119.97;5092288;28;20351;-72
2021/06/26 11:53:28;;;;;;;;;;;;;;;31.67;24.27;101108.78;5074539;28;19931;-72
2021/06/26 11:55:59;;;;;;;;;;;;;;;31.75;23.27;101111.16;5074024;28;20360;-72
2021/06/26 11:58:36;;;;;;;;;;;;;;;32.01;22.72;101117.13;5092205;28;20279;-73
2021/06/26 12:01:02;;;;;;;;;;;;;;;32.05;22.89;101112.69;5092112;28;20091;-72
2021/06/26 12:03:30;;;;;;;;;;;;;;;32.55;23.97;101116.44;5092259;28;20377;-72
2021/06/26 12:06:00;;;;;;;;;;;;;;;32.25;21.83;101103.72;5092221;28;20027;-72
2021/06/26 12:08:26;;;;;;;;;;;;;;;32.08;21.47;101114.97;5091810;28;20404;-72
2021/06/26 12:10:53;;;;;;;;;;;;;;;31.74;20.96;101101.03;5092015;28;20294;-73
2021/06/26 12:13:19;;;;;;;;;;;;;;;32.33;20.88;101102.41;5092011;28;19924;-72
2021/06/26 12:15:46;;;;;;;;;;;;;;;32.86;20.08;101098.00;5091854;28;19974;-72
2021/06/26 12:18:12;;;;;;;;;;;;;;;32.52;20.30;101095.34;5073180;28;19928;-72
2021/06/26 12:20:39;;;;;;;;;;;;;;;32.25;21.32;101102.88;5091990;28;20358;-73
2021/06/26 12:23:08;;;;;;;;;;;;;;;30.55;22.08;101104.50;5091673;28;19976;-73
2021/06/26 12:25:35;;;;;;;;;;;;;;;29.41;24.40;101102.16;5091665;28;20355;-73
2021/06/26 12:28:02;;;;;;;;;;;;;;;28.46;25.23;101105.47;5091530;28;20367;-72
2021/06/26 12:30:28;;;;;;;;;;;;;;;28.22;24.80;101101.69;5091569;28;19924;-72
2021/06/26 12:33:02;;;;;;;;;;;;;;;28.38;24.59;101101.06;5073893;28;20354;-72